sensor_id;sensor_type;location;lat;lon;timestamp;temperature;humidity
51383;DHT22;37475;43.358;1.248;2023-08-17T00:01:51;23.10;89.40
51383;DHT22;37475;43.358;1.248;2023-08-17T00:04:17;22.60;89.80
51383;DHT22;37475;43.358;1.248;2023-08-17T00:06:43;22.20;91.50
51383;DHT22;37475;43.358;1.248;2023-08-17T00:09:09;22.10;92.30
51383;DHT22;37475;43.358;1.248;2023-08-17T00:11:35;22.10;92.80
51383;DHT22;37475;43.358;1.248;2023-08-17T00:14:01;22.00;93.20
51383;DHT22;37475;43.358;1.248;2023-08-17T00:16:27;22.10;93.60
51383;DHT22;37475;43.358;1.248;2023-08-17T00:18:53;22.10;93.60
51383;DHT22;37475;43.358;1.248;2023-08-17T00:21:19;22.10;93.60
51383;DHT22;37475;43.358;1.248;2023-08-17T00:23:45;22.10;93.60
51383;DHT22;37475;43.358;1.248;2023-08-17T00:26:11;22.20;93.50
51383;DHT22;37475;43.358;1.248;2023-08-17T00:28:37;22.20;93.30
51383;DHT22;37475;43.358;1.248;2023-08-17T00:31:03;22.30;93.20
51383;DHT22;37475;43.358;1.248;2023-08-17T00:33:29;22.40;92.90
51383;DHT22;37475;43.358;1.248;2023-08-17T00:35:55;22.40;92.70
51383;DHT22;37475;43.358;1.248;2023-08-17T00:38:20;22.50;92.50
51383;DHT22;37475;43.358;1.248;2023-08-17T00:40:47;22.50;92.20
51383;DHT22;37475;43.358;1.248;2023-08-17T00:43:12;22.50;92.30
51383;DHT22;37475;43.358;1.248;2023-08-17T00:45:39;22.50;92.10
51383;DHT22;37475;43.358;1.248;2023-08-17T00:48:06;22.50;91.90
51383;DHT22;37475;43.358;1.248;2023-08-17T00:50:34;22.40;92.00
51383;DHT22;37475;43.358;1.248;2023-08-17T00:53:00;22.40;92.10
51383;DHT22;37475;43.358;1.248;2023-08-17T00:55:27;22.40;91.80
51383;DHT22;37475;43.358;1.248;2023-08-17T00:57:53;22.30;92.00
51383;DHT22;37475;43.358;1.248;2023-08-17T01:00:22;22.30;92.00
51383;DHT22;37475;43.358;1.248;2023-08-17T01:02:49;22.30;91.70
51383;DHT22;37475;43.358;1.248;2023-08-17T01:05:16;22.30;91.70
51383;DHT22;37475;43.358;1.248;2023-08-17T01:07:42;22.40;91.40
51383;DHT22;37475;43.358;1.248;2023-08-17T01:10:08;22.30;91.40
51383;DHT22;37475;43.358;1.248;2023-08-17T01:12:44;22.30;91.60
51383;DHT22;37475;43.358;1.248;2023-08-17T01:15:37;22.20;91.50
51383;DHT22;37475;43.358;1.248;2023-08-17T01:18:32;22.20;91.90
51383;DHT22;37475;43.358;1.248;2023-08-17T01:21:02;22.10;92.20
51383;DHT22;37475;43.358;1.248;2023-08-17T01:23:31;22.10;92.50
51383;DHT22;37475;43.358;1.248;2023-08-17T01:25:57;22.00;92.80
51383;DHT22;37475;43.358;1.248;2023-08-17T01:28:23;22.00;93.00
51383;DHT22;37475;43.358;1.248;2023-08-17T01:31:08;22.00;92.90
51383;DHT22;37475;43.358;1.248;2023-08-17T01:33:40;21.90;93.10
51383;DHT22;37475;43.358;1.248;2023-08-17T01:36:18;21.80;93.20
51383;DHT22;37475;43.358;1.248;2023-08-17T01:38:46;21.70;93.40
51383;DHT22;37475;43.358;1.248;2023-08-17T01:41:14;21.60;93.80
51383;DHT22;37475;43.358;1.248;2023-08-17T01:43:44;21.50;94.20
51383;DHT22;37475;43.358;1.248;2023-08-17T01:46:17;21.60;94.30
51383;DHT22;37475;43.358;1.248;2023-08-17T01:48:44;21.60;94.30
51383;DHT22;37475;43.358;1.248;2023-08-17T01:51:16;21.60;94.20
51383;DHT22;37475;43.358;1.248;2023-08-17T01:53:44;21.60;94.00
51383;DHT22;37475;43.358;1.248;2023-08-17T01:56:09;21.60;93.90
51383;DHT22;37475;43.358;1.248;2023-08-17T01:58:35;21.60;93.90
51383;DHT22;37475;43.358;1.248;2023-08-17T02:01:01;21.60;93.80
51383;DHT22;37475;43.358;1.248;2023-08-17T02:03:27;21.60;93.70
51383;DHT22;37475;43.358;1.248;2023-08-17T02:05:56;21.60;93.40
51383;DHT22;37475;43.358;1.248;2023-08-17T02:08:22;21.60;93.30
51383;DHT22;37475;43.358;1.248;2023-08-17T02:10:48;21.60;93.10
51383;DHT22;37475;43.358;1.248;2023-08-17T02:13:16;21.50;93.40
51383;DHT22;37475;43.358;1.248;2023-08-17T02:15:42;21.50;93.80
51383;DHT22;37475;43.358;1.248;2023-08-17T02:18:08;21.50;93.80
51383;DHT22;37475;43.358;1.248;2023-08-17T02:20:34;21.40;93.70
51383;DHT22;37475;43.358;1.248;2023-08-17T02:23:00;21.40;93.70
51383;DHT22;37475;43.358;1.248;2023-08-17T02:25:27;21.40;93.60
51383;DHT22;37475;43.358;1.248;2023-08-17T02:27:59;21.40;93.50
51383;DHT22;37475;43.358;1.248;2023-08-17T02:30:25;21.50;93.20
51383;DHT22;37475;43.358;1.248;2023-08-17T02:32:51;21.50;93.00
51383;DHT22;37475;43.358;1.248;2023-08-17T02:35:18;21.50;92.90
51383;DHT22;37475;43.358;1.248;2023-08-17T02:37:43;21.50;92.70
51383;DHT22;37475;43.358;1.248;2023-08-17T02:40:10;21.50;92.80
51383;DHT22;37475;43.358;1.248;2023-08-17T02:42:36;21.50;92.60
51383;DHT22;37475;43.358;1.248;2023-08-17T02:45:01;21.50;92.50
51383;DHT22;37475;43.358;1.248;2023-08-17T02:47:27;21.60;92.50
51383;DHT22;37475;43.358;1.248;2023-08-17T02:49:53;21.50;92.50
51383;DHT22;37475;43.358;1.248;2023-08-17T02:52:19;21.50;92.40
51383;DHT22;37475;43.358;1.248;2023-08-17T02:54:45;21.50;92.30
51383;DHT22;37475;43.358;1.248;2023-08-17T02:57:11;21.40;92.00
51383;DHT22;37475;43.358;1.248;2023-08-17T02:59:38;21.30;92.10
51383;DHT22;37475;43.358;1.248;2023-08-17T03:02:03;21.20;92.20
51383;DHT22;37475;43.358;1.248;2023-08-17T03:04:29;21.10;92.50
51383;DHT22;37475;43.358;1.248;2023-08-17T03:06:55;21.10;92.70
51383;DHT22;37475;43.358;1.248;2023-08-17T03:09:21;21.10;92.70
51383;DHT22;37475;43.358;1.248;2023-08-17T03:11:46;21.20;92.60
51383;DHT22;37475;43.358;1.248;2023-08-17T03:14:12;21.20;92.70
51383;DHT22;37475;43.358;1.248;2023-08-17T03:16:38;21.20;92.70
51383;DHT22;37475;43.358;1.248;2023-08-17T03:19:04;21.20;92.60
51383;DHT22;37475;43.358;1.248;2023-08-17T03:21:30;21.20;92.50
51383;DHT22;37475;43.358;1.248;2023-08-17T03:23:56;21.10;92.70
51383;DHT22;37475;43.358;1.248;2023-08-17T03:26:21;21.10;93.00
51383;DHT22;37475;43.358;1.248;2023-08-17T03:28:47;21.10;93.00
51383;DHT22;37475;43.358;1.248;2023-08-17T03:31:13;21.10;92.80
51383;DHT22;37475;43.358;1.248;2023-08-17T03:33:39;21.10;92.90
51383;DHT22;37475;43.358;1.248;2023-08-17T03:36:06;21.10;92.80
51383;DHT22;37475;43.358;1.248;2023-08-17T03:38:32;21.10;92.90
51383;DHT22;37475;43.358;1.248;2023-08-17T03:40:57;21.20;93.10
51383;DHT22;37475;43.358;1.248;2023-08-17T03:43:23;21.20;93.00
51383;DHT22;37475;43.358;1.248;2023-08-17T03:45:50;21.30;92.80
51383;DHT22;37475;43.358;1.248;2023-08-17T03:48:16;21.20;92.70
51383;DHT22;37475;43.358;1.248;2023-08-17T03:50:42;21.30;92.70
51383;DHT22;37475;43.358;1.248;2023-08-17T03:53:08;21.30;92.60
51383;DHT22;37475;43.358;1.248;2023-08-17T03:55:34;21.30;92.40
51383;DHT22;37475;43.358;1.248;2023-08-17T03:57:59;21.30;92.20
51383;DHT22;37475;43.358;1.248;2023-08-17T04:00:25;21.20;92.00
51383;DHT22;37475;43.358;1.248;2023-08-17T04:02:51;20.90;92.40
51383;DHT22;37475;43.358;1.248;2023-08-17T04:05:17;20.90;92.80
51383;DHT22;37475;43.358;1.248;2023-08-17T04:07:43;20.90;92.90
51383;DHT22;37475;43.358;1.248;2023-08-17T04:10:09;20.70;93.00
51383;DHT22;37475;43.358;1.248;2023-08-17T04:12:34;20.60;93.40
51383;DHT22;37475;43.358;1.248;2023-08-17T04:15:00;20.60;93.70
51383;DHT22;37475;43.358;1.248;2023-08-17T04:17:26;20.70;94.00
51383;DHT22;37475;43.358;1.248;2023-08-17T04:19:52;20.70;94.30
51383;DHT22;37475;43.358;1.248;2023-08-17T04:22:18;20.70;94.50
51383;DHT22;37475;43.358;1.248;2023-08-17T04:24:43;20.70;94.40
51383;DHT22;37475;43.358;1.248;2023-08-17T04:27:09;20.60;94.30
51383;DHT22;37475;43.358;1.248;2023-08-17T04:29:37;20.60;94.30
51383;DHT22;37475;43.358;1.248;2023-08-17T04:32:03;20.60;94.10
51383;DHT22;37475;43.358;1.248;2023-08-17T04:34:29;20.60;94.00
51383;DHT22;37475;43.358;1.248;2023-08-17T04:36:55;20.70;94.00
51383;DHT22;37475;43.358;1.248;2023-08-17T04:39:21;20.60;93.90
51383;DHT22;37475;43.358;1.248;2023-08-17T04:41:46;20.60;93.90
51383;DHT22;37475;43.358;1.248;2023-08-17T04:44:13;20.70;93.80
51383;DHT22;37475;43.358;1.248;2023-08-17T04:46:39;20.60;93.70
51383;DHT22;37475;43.358;1.248;2023-08-17T04:49:04;20.60;93.70
51383;DHT22;37475;43.358;1.248;2023-08-17T04:51:31;20.60;93.60
51383;DHT22;37475;43.358;1.248;2023-08-17T04:53:56;20.50;93.70
51383;DHT22;37475;43.358;1.248;2023-08-17T04:56:22;20.50;93.70
51383;DHT22;37475;43.358;1.248;2023-08-17T04:58:48;20.50;93.70
51383;DHT22;37475;43.358;1.248;2023-08-17T05:01:14;20.40;93.70
51383;DHT22;37475;43.358;1.248;2023-08-17T05:03:39;20.40;93.80
51383;DHT22;37475;43.358;1.248;2023-08-17T05:06:05;20.40;93.90
51383;DHT22;37475;43.358;1.248;2023-08-17T05:08:31;20.40;93.90
51383;DHT22;37475;43.358;1.248;2023-08-17T05:10:57;20.30;93.90
51383;DHT22;37475;43.358;1.248;2023-08-17T05:13:23;20.30;94.00
51383;DHT22;37475;43.358;1.248;2023-08-17T05:15:48;20.40;94.10
51383;DHT22;37475;43.358;1.248;2023-08-17T05:18:14;20.40;94.10
51383;DHT22;37475;43.358;1.248;2023-08-17T05:20:40;20.40;94.00
51383;DHT22;37475;43.358;1.248;2023-08-17T05:23:06;20.30;94.00
51383;DHT22;37475;43.358;1.248;2023-08-17T05:25:33;20.30;94.00
51383;DHT22;37475;43.358;1.248;2023-08-17T05:27:59;20.30;94.00
51383;DHT22;37475;43.358;1.248;2023-08-17T05:30:24;20.20;94.00
51383;DHT22;37475;43.358;1.248;2023-08-17T05:32:50;20.30;94.10
51383;DHT22;37475;43.358;1.248;2023-08-17T05:35:16;20.20;94.10
51383;DHT22;37475;43.358;1.248;2023-08-17T05:37:42;20.30;94.20
51383;DHT22;37475;43.358;1.248;2023-08-17T05:40:08;20.30;94.20
51383;DHT22;37475;43.358;1.248;2023-08-17T05:42:35;20.30;94.10
51383;DHT22;37475;43.358;1.248;2023-08-17T05:45:01;20.30;94.00
51383;DHT22;37475;43.358;1.248;2023-08-17T05:47:26;20.30;94.00
51383;DHT22;37475;43.358;1.248;2023-08-17T05:49:52;20.20;94.00
51383;DHT22;37475;43.358;1.248;2023-08-17T05:52:18;20.20;94.00
51383;DHT22;37475;43.358;1.248;2023-08-17T05:54:43;20.10;94.10
51383;DHT22;37475;43.358;1.248;2023-08-17T05:57:09;20.20;94.20
51383;DHT22;37475;43.358;1.248;2023-08-17T05:59:36;20.10;94.10
51383;DHT22;37475;43.358;1.248;2023-08-17T06:02:01;20.20;94.30
51383;DHT22;37475;43.358;1.248;2023-08-17T06:04:27;20.10;94.30
51383;DHT22;37475;43.358;1.248;2023-08-17T06:06:53;20.20;94.20
51383;DHT22;37475;43.358;1.248;2023-08-17T06:09:19;20.30;94.20
51383;DHT22;37475;43.358;1.248;2023-08-17T06:11:44;20.30;93.90
51383;DHT22;37475;43.358;1.248;2023-08-17T06:14:10;20.20;93.90
51383;DHT22;37475;43.358;1.248;2023-08-17T06:16:36;20.20;93.90
51383;DHT22;37475;43.358;1.248;2023-08-17T06:19:02;20.20;93.80
51383;DHT22;37475;43.358;1.248;2023-08-17T06:21:28;20.30;93.90
51383;DHT22;37475;43.358;1.248;2023-08-17T06:23:53;20.30;93.90
51383;DHT22;37475;43.358;1.248;2023-08-17T06:26:19;20.40;93.70
51383;DHT22;37475;43.358;1.248;2023-08-17T06:28:45;20.40;93.70
51383;DHT22;37475;43.358;1.248;2023-08-17T06:31:14;20.30;93.60
51383;DHT22;37475;43.358;1.248;2023-08-17T06:33:40;20.50;93.60
51383;DHT22;37475;43.358;1.248;2023-08-17T06:36:06;20.50;93.50
51383;DHT22;37475;43.358;1.248;2023-08-17T06:38:32;20.50;93.30
51383;DHT22;37475;43.358;1.248;2023-08-17T06:40:58;20.50;93.30
51383;DHT22;37475;43.358;1.248;2023-08-17T06:43:23;20.50;93.30
51383;DHT22;37475;43.358;1.248;2023-08-17T06:45:49;20.50;93.40
51383;DHT22;37475;43.358;1.248;2023-08-17T06:48:15;20.60;93.40
51383;DHT22;37475;43.358;1.248;2023-08-17T06:50:41;20.50;93.30
51383;DHT22;37475;43.358;1.248;2023-08-17T06:53:07;20.50;93.50
51383;DHT22;37475;43.358;1.248;2023-08-17T06:55:32;20.40;93.70
51383;DHT22;37475;43.358;1.248;2023-08-17T06:57:58;20.50;93.70
51383;DHT22;37475;43.358;1.248;2023-08-17T07:00:24;20.60;93.70
51383;DHT22;37475;43.358;1.248;2023-08-17T07:02:50;20.60;93.50
51383;DHT22;37475;43.358;1.248;2023-08-17T07:05:16;20.60;93.50
51383;DHT22;37475;43.358;1.248;2023-08-17T07:07:43;20.80;93.50
51383;DHT22;37475;43.358;1.248;2023-08-17T07:10:10;20.90;93.40
51383;DHT22;37475;43.358;1.248;2023-08-17T07:12:39;20.90;93.10
51383;DHT22;37475;43.358;1.248;2023-08-17T07:15:06;20.80;92.90
51383;DHT22;37475;43.358;1.248;2023-08-17T07:17:33;20.80;92.90
51383;DHT22;37475;43.358;1.248;2023-08-17T07:20:05;20.90;92.90
51383;DHT22;37475;43.358;1.248;2023-08-17T07:22:33;21.00;92.80
51383;DHT22;37475;43.358;1.248;2023-08-17T07:24:59;21.10;92.70
51383;DHT22;37475;43.358;1.248;2023-08-17T07:27:25;21.10;92.50
51383;DHT22;37475;43.358;1.248;2023-08-17T07:29:51;21.10;92.40
51383;DHT22;37475;43.358;1.248;2023-08-17T07:32:17;21.20;92.30
51383;DHT22;37475;43.358;1.248;2023-08-17T07:34:43;21.10;92.20
51383;DHT22;37475;43.358;1.248;2023-08-17T07:37:09;21.10;92.60
51383;DHT22;37475;43.358;1.248;2023-08-17T07:39:35;21.10;92.50
51383;DHT22;37475;43.358;1.248;2023-08-17T07:42:01;21.10;92.50
51383;DHT22;37475;43.358;1.248;2023-08-17T07:44:27;21.10;92.20
51383;DHT22;37475;43.358;1.248;2023-08-17T07:46:54;21.20;92.40
51383;DHT22;37475;43.358;1.248;2023-08-17T07:49:20;21.20;92.20
51383;DHT22;37475;43.358;1.248;2023-08-17T07:51:48;21.30;92.10
51383;DHT22;37475;43.358;1.248;2023-08-17T07:54:14;21.40;92.20
51383;DHT22;37475;43.358;1.248;2023-08-17T07:56:40;21.50;91.80
51383;DHT22;37475;43.358;1.248;2023-08-17T07:59:05;21.60;91.70
51383;DHT22;37475;43.358;1.248;2023-08-17T08:01:31;21.70;91.30
51383;DHT22;37475;43.358;1.248;2023-08-17T08:03:57;21.70;90.80
51383;DHT22;37475;43.358;1.248;2023-08-17T08:06:23;21.80;90.90
51383;DHT22;37475;43.358;1.248;2023-08-17T08:08:49;21.80;90.50
51383;DHT22;37475;43.358;1.248;2023-08-17T08:11:15;21.80;90.40
51383;DHT22;37475;43.358;1.248;2023-08-17T08:13:40;21.90;90.40
51383;DHT22;37475;43.358;1.248;2023-08-17T08:16:06;21.90;90.10
51383;DHT22;37475;43.358;1.248;2023-08-17T08:18:32;21.90;90.30
51383;DHT22;37475;43.358;1.248;2023-08-17T08:20:58;22.10;90.50
51383;DHT22;37475;43.358;1.248;2023-08-17T08:23:23;22.30;90.20
51383;DHT22;37475;43.358;1.248;2023-08-17T08:25:49;22.40;90.10
51383;DHT22;37475;43.358;1.248;2023-08-17T08:28:15;22.50;89.90
51383;DHT22;37475;43.358;1.248;2023-08-17T08:30:41;22.60;89.50
51383;DHT22;37475;43.358;1.248;2023-08-17T08:33:06;22.80;89.60
51383;DHT22;37475;43.358;1.248;2023-08-17T08:35:32;23.00;89.00
51383;DHT22;37475;43.358;1.248;2023-08-17T08:37:59;23.10;88.70
51383;DHT22;37475;43.358;1.248;2023-08-17T08:40:29;23.00;88.50
51383;DHT22;37475;43.358;1.248;2023-08-17T08:42:56;23.20;88.10
51383;DHT22;37475;43.358;1.248;2023-08-17T08:45:23;23.50;87.50
51383;DHT22;37475;43.358;1.248;2023-08-17T08:47:49;23.50;87.40
51383;DHT22;37475;43.358;1.248;2023-08-17T08:50:21;23.30;86.50
51383;DHT22;37475;43.358;1.248;2023-08-17T08:53:01;23.40;87.30
51383;DHT22;37475;43.358;1.248;2023-08-17T08:55:34;23.60;87.10
51383;DHT22;37475;43.358;1.248;2023-08-17T08:58:04;23.50;86.70
51383;DHT22;37475;43.358;1.248;2023-08-17T09:00:30;23.50;85.70
51383;DHT22;37475;43.358;1.248;2023-08-17T09:02:57;23.50;86.50
51383;DHT22;37475;43.358;1.248;2023-08-17T09:05:24;23.60;86.60
51383;DHT22;37475;43.358;1.248;2023-08-17T09:07:52;24.00;85.90
51383;DHT22;37475;43.358;1.248;2023-08-17T09:10:18;24.10;85.10
51383;DHT22;37475;43.358;1.248;2023-08-17T09:12:46;24.40;84.70
51383;DHT22;37475;43.358;1.248;2023-08-17T09:15:12;24.50;83.60
51383;DHT22;37475;43.358;1.248;2023-08-17T09:17:38;24.70;83.20
51383;DHT22;37475;43.358;1.248;2023-08-17T09:20:04;24.40;82.50
51383;DHT22;37475;43.358;1.248;2023-08-17T09:22:43;24.10;84.10
51383;DHT22;37475;43.358;1.248;2023-08-17T09:25:10;24.30;84.00
51383;DHT22;37475;43.358;1.248;2023-08-17T09:27:37;24.30;84.40
51383;DHT22;37475;43.358;1.248;2023-08-17T09:30:10;24.60;83.90
51383;DHT22;37475;43.358;1.248;2023-08-17T09:32:36;24.60;82.60
51383;DHT22;37475;43.358;1.248;2023-08-17T09:35:03;24.20;83.90
51383;DHT22;37475;43.358;1.248;2023-08-17T09:37:31;24.50;84.20
51383;DHT22;37475;43.358;1.248;2023-08-17T09:39:58;24.80;82.70
51383;DHT22;37475;43.358;1.248;2023-08-17T09:42:24;25.00;82.40
51383;DHT22;37475;43.358;1.248;2023-08-17T09:44:51;25.10;80.90
51383;DHT22;37475;43.358;1.248;2023-08-17T09:47:18;24.90;82.00
51383;DHT22;37475;43.358;1.248;2023-08-17T09:49:52;24.70;82.70
51383;DHT22;37475;43.358;1.248;2023-08-17T09:52:19;24.70;82.50
51383;DHT22;37475;43.358;1.248;2023-08-17T09:54:46;24.90;82.10
51383;DHT22;37475;43.358;1.248;2023-08-17T09:57:16;25.20;81.70
51383;DHT22;37475;43.358;1.248;2023-08-17T09:59:43;25.30;81.20
51383;DHT22;37475;43.358;1.248;2023-08-17T10:02:19;25.30;80.90
51383;DHT22;37475;43.358;1.248;2023-08-17T10:04:53;25.30;80.80
51383;DHT22;37475;43.358;1.248;2023-08-17T10:07:20;25.80;80.80
51383;DHT22;37475;43.358;1.248;2023-08-17T10:10:02;25.90;78.90
51383;DHT22;37475;43.358;1.248;2023-08-17T10:12:39;26.00;78.80
51383;DHT22;37475;43.358;1.248;2023-08-17T10:15:15;26.10;78.00
51383;DHT22;37475;43.358;1.248;2023-08-17T10:18:13;26.30;77.70
51383;DHT22;37475;43.358;1.248;2023-08-17T10:20:44;26.50;76.60
51383;DHT22;37475;43.358;1.248;2023-08-17T10:23:19;26.80;75.60
51383;DHT22;37475;43.358;1.248;2023-08-17T10:25:48;27.00;74.20
51383;DHT22;37475;43.358;1.248;2023-08-17T10:28:16;26.70;74.80
51383;DHT22;37475;43.358;1.248;2023-08-17T10:30:43;26.70;75.40
51383;DHT22;37475;43.358;1.248;2023-08-17T10:33:09;26.70;74.80
51383;DHT22;37475;43.358;1.248;2023-08-17T10:35:35;26.90;75.50
51383;DHT22;37475;43.358;1.248;2023-08-17T10:38:03;27.20;75.30
51383;DHT22;37475;43.358;1.248;2023-08-17T10:40:35;27.30;74.40
51383;DHT22;37475;43.358;1.248;2023-08-17T10:43:01;27.20;75.00
51383;DHT22;37475;43.358;1.248;2023-08-17T10:45:29;27.50;73.50
51383;DHT22;37475;43.358;1.248;2023-08-17T10:50:39;27.70;72.90
51383;DHT22;37475;43.358;1.248;2023-08-17T10:53:09;27.50;72.00
51383;DHT22;37475;43.358;1.248;2023-08-17T10:58:05;27.80;71.80
51383;DHT22;37475;43.358;1.248;2023-08-17T11:00:35;27.80;73.20
51383;DHT22;37475;43.358;1.248;2023-08-17T11:03:09;27.80;70.80
51383;DHT22;37475;43.358;1.248;2023-08-17T11:05:46;28.30;70.70
51383;DHT22;37475;43.358;1.248;2023-08-17T11:08:54;28.60;70.50
51383;DHT22;37475;43.358;1.248;2023-08-17T11:11:21;28.60;68.20
51383;DHT22;37475;43.358;1.248;2023-08-17T11:13:48;28.90;67.90
51383;DHT22;37475;43.358;1.248;2023-08-17T11:16:17;29.30;68.40
51383;DHT22;37475;43.358;1.248;2023-08-17T11:18:45;29.20;66.30
51383;DHT22;37475;43.358;1.248;2023-08-17T11:21:12;29.10;67.10
51383;DHT22;37475;43.358;1.248;2023-08-17T11:23:40;29.10;66.50
51383;DHT22;37475;43.358;1.248;2023-08-17T11:26:07;29.40;66.40
51383;DHT22;37475;43.358;1.248;2023-08-17T11:28:34;29.50;65.50
51383;DHT22;37475;43.358;1.248;2023-08-17T11:31:07;29.60;65.40
51383;DHT22;37475;43.358;1.248;2023-08-17T11:33:35;29.90;64.10
51383;DHT22;37475;43.358;1.248;2023-08-17T11:36:04;30.30;63.90
51383;DHT22;37475;43.358;1.248;2023-08-17T11:38:39;30.40;61.10
51383;DHT22;37475;43.358;1.248;2023-08-17T11:41:06;30.50;62.40
51383;DHT22;37475;43.358;1.248;2023-08-17T11:43:35;31.00;60.10
51383;DHT22;37475;43.358;1.248;2023-08-17T11:46:02;31.00;59.70
51383;DHT22;37475;43.358;1.248;2023-08-17T11:48:28;31.20;60.20
51383;DHT22;37475;43.358;1.248;2023-08-17T11:50:54;31.40;58.40
51383;DHT22;37475;43.358;1.248;2023-08-17T11:53:21;31.30;60.10
51383;DHT22;37475;43.358;1.248;2023-08-17T11:55:47;31.10;59.90
51383;DHT22;37475;43.358;1.248;2023-08-17T11:58:13;31.10;60.20
51383;DHT22;37475;43.358;1.248;2023-08-17T12:00:43;31.50;58.70
51383;DHT22;37475;43.358;1.248;2023-08-17T12:03:16;31.50;59.60
51383;DHT22;37475;43.358;1.248;2023-08-17T12:05:43;31.30;58.30
51383;DHT22;37475;43.358;1.248;2023-08-17T12:08:10;31.40;58.20
51383;DHT22;37475;43.358;1.248;2023-08-17T12:10:38;31.70;56.70
51383;DHT22;37475;43.358;1.248;2023-08-17T12:13:04;31.80;56.10
51383;DHT22;37475;43.358;1.248;2023-08-17T12:15:31;32.20;56.30
51383;DHT22;37475;43.358;1.248;2023-08-17T12:18:00;32.50;54.00
51383;DHT22;37475;43.358;1.248;2023-08-17T12:20:27;32.50;55.30
51383;DHT22;37475;43.358;1.248;2023-08-17T12:22:53;32.50;54.70
51383;DHT22;37475;43.358;1.248;2023-08-17T12:25:21;32.50;54.00
51383;DHT22;37475;43.358;1.248;2023-08-17T12:27:48;32.50;54.90
51383;DHT22;37475;43.358;1.248;2023-08-17T12:30:32;32.70;53.70
51383;DHT22;37475;43.358;1.248;2023-08-17T12:32:58;32.80;53.90
51383;DHT22;37475;43.358;1.248;2023-08-17T12:35:25;32.60;54.00
51383;DHT22;37475;43.358;1.248;2023-08-17T12:37:52;33.10;52.30
51383;DHT22;37475;43.358;1.248;2023-08-17T12:40:18;33.10;52.10
51383;DHT22;37475;43.358;1.248;2023-08-17T12:42:45;33.20;52.90
51383;DHT22;37475;43.358;1.248;2023-08-17T12:45:10;33.10;52.00
51383;DHT22;37475;43.358;1.248;2023-08-17T12:47:36;33.00;52.20
51383;DHT22;37475;43.358;1.248;2023-08-17T12:50:03;32.90;53.50
51383;DHT22;37475;43.358;1.248;2023-08-17T12:52:30;33.50;51.20
51383;DHT22;37475;43.358;1.248;2023-08-17T12:54:55;33.70;51.00
51383;DHT22;37475;43.358;1.248;2023-08-17T12:57:21;33.50;48.90
51383;DHT22;37475;43.358;1.248;2023-08-17T12:59:47;33.60;50.00
51383;DHT22;37475;43.358;1.248;2023-08-17T13:02:13;33.60;49.00
51383;DHT22;37475;43.358;1.248;2023-08-17T13:04:39;33.70;49.70
51383;DHT22;37475;43.358;1.248;2023-08-17T13:07:06;34.00;50.00
51383;DHT22;37475;43.358;1.248;2023-08-17T13:09:32;33.70;50.10
51383;DHT22;37475;43.358;1.248;2023-08-17T13:11:57;33.90;48.90
51383;DHT22;37475;43.358;1.248;2023-08-17T13:14:23;34.10;49.90
51383;DHT22;37475;43.358;1.248;2023-08-17T13:16:50;34.10;47.80
51383;DHT22;37475;43.358;1.248;2023-08-17T13:19:16;34.00;47.30
51383;DHT22;37475;43.358;1.248;2023-08-17T13:21:42;34.20;46.90
51383;DHT22;37475;43.358;1.248;2023-08-17T13:24:07;34.20;46.50
51383;DHT22;37475;43.358;1.248;2023-08-17T13:26:34;34.50;46.30
51383;DHT22;37475;43.358;1.248;2023-08-17T13:29:00;34.50;46.20
51383;DHT22;37475;43.358;1.248;2023-08-17T13:31:26;34.30;47.80
51383;DHT22;37475;43.358;1.248;2023-08-17T13:33:51;34.60;47.70
51383;DHT22;37475;43.358;1.248;2023-08-17T13:36:18;34.80;45.80
51383;DHT22;37475;43.358;1.248;2023-08-17T13:38:44;34.50;46.20
51383;DHT22;37475;43.358;1.248;2023-08-17T13:41:11;34.40;47.20
51383;DHT22;37475;43.358;1.248;2023-08-17T13:43:37;34.50;46.00
51383;DHT22;37475;43.358;1.248;2023-08-17T13:46:03;34.10;47.80
51383;DHT22;37475;43.358;1.248;2023-08-17T13:48:30;34.20;47.00
51383;DHT22;37475;43.358;1.248;2023-08-17T13:50:55;34.20;46.60
51383;DHT22;37475;43.358;1.248;2023-08-17T13:53:21;34.00;47.50
51383;DHT22;37475;43.358;1.248;2023-08-17T13:55:47;34.00;47.70
51383;DHT22;37475;43.358;1.248;2023-08-17T13:58:13;33.90;48.00
51383;DHT22;37475;43.358;1.248;2023-08-17T14:00:41;33.90;48.50
51383;DHT22;37475;43.358;1.248;2023-08-17T14:03:07;34.10;47.10
51383;DHT22;37475;43.358;1.248;2023-08-17T14:05:33;34.10;48.00
51383;DHT22;37475;43.358;1.248;2023-08-17T14:07:59;34.40;48.10
51383;DHT22;37475;43.358;1.248;2023-08-17T14:10:25;34.10;47.50
51383;DHT22;37475;43.358;1.248;2023-08-17T14:12:51;34.20;47.30
51383;DHT22;37475;43.358;1.248;2023-08-17T14:15:16;34.00;48.90
51383;DHT22;37475;43.358;1.248;2023-08-17T14:17:42;34.20;47.30
51383;DHT22;37475;43.358;1.248;2023-08-17T14:20:08;33.70;48.50
51383;DHT22;37475;43.358;1.248;2023-08-17T14:22:34;34.00;47.90
51383;DHT22;37475;43.358;1.248;2023-08-17T14:25:00;33.80;47.90
51383;DHT22;37475;43.358;1.248;2023-08-17T14:27:26;33.70;48.40
51383;DHT22;37475;43.358;1.248;2023-08-17T14:29:52;33.40;48.80
51383;DHT22;37475;43.358;1.248;2023-08-17T14:32:18;33.50;48.10
51383;DHT22;37475;43.358;1.248;2023-08-17T14:34:43;33.70;48.20
51383;DHT22;37475;43.358;1.248;2023-08-17T14:37:09;34.10;48.00
51383;DHT22;37475;43.358;1.248;2023-08-17T14:39:35;34.20;46.60
51383;DHT22;37475;43.358;1.248;2023-08-17T14:42:01;34.30;46.60
51383;DHT22;37475;43.358;1.248;2023-08-17T14:44:26;34.50;47.00
51383;DHT22;37475;43.358;1.248;2023-08-17T14:46:52;34.20;47.30
51383;DHT22;37475;43.358;1.248;2023-08-17T14:49:18;34.40;47.20
51383;DHT22;37475;43.358;1.248;2023-08-17T14:51:44;35.00;46.40
51383;DHT22;37475;43.358;1.248;2023-08-17T14:54:09;35.30;44.50
51383;DHT22;37475;43.358;1.248;2023-08-17T14:56:35;35.50;45.60
51383;DHT22;37475;43.358;1.248;2023-08-17T14:59:01;35.00;44.50
51383;DHT22;37475;43.358;1.248;2023-08-17T15:01:28;35.80;46.30
51383;DHT22;37475;43.358;1.248;2023-08-17T15:03:55;35.60;42.90
51383;DHT22;37475;43.358;1.248;2023-08-17T15:06:20;35.50;43.90
51383;DHT22;37475;43.358;1.248;2023-08-17T15:08:52;35.60;44.50
51383;DHT22;37475;43.358;1.248;2023-08-17T15:11:18;36.10;43.80
51383;DHT22;37475;43.358;1.248;2023-08-17T15:13:44;36.40;42.50
51383;DHT22;37475;43.358;1.248;2023-08-17T15:16:10;36.20;42.70
51383;DHT22;37475;43.358;1.248;2023-08-17T15:18:37;35.80;43.50
51383;DHT22;37475;43.358;1.248;2023-08-17T15:21:03;35.50;44.10
51383;DHT22;37475;43.358;1.248;2023-08-17T15:23:29;35.20;45.60
51383;DHT22;37475;43.358;1.248;2023-08-17T15:25:55;34.70;44.90
51383;DHT22;37475;43.358;1.248;2023-08-17T15:28:20;34.50;45.60
51383;DHT22;37475;43.358;1.248;2023-08-17T15:31:00;34.30;45.40
51383;DHT22;37475;43.358;1.248;2023-08-17T15:33:31;34.00;46.30
51383;DHT22;37475;43.358;1.248;2023-08-17T15:35:57;34.10;46.40